sensor_id;sensor_type;location;lat;lon;timestamp;P1;durP1;ratioP1;P2;durP2;ratioP2
13331;SDS011;6735;51.456;12.626;2023-02-28T00:00:07;4.40;;;3.30;;
13331;SDS011;6735;51.456;12.626;2023-02-28T00:02:36;3.47;;;3.17;;
13331;SDS011;6735;51.456;12.626;2023-02-28T00:05:02;6.33;;;3.57;;
13331;SDS011;6735;51.456;12.626;2023-02-28T00:07:28;3.73;;;3.27;;
13331;SDS011;6735;51.456;12.626;2023-02-28T00:09:55;3.67;;;3.03;;
13331;SDS011;6735;51.456;12.626;2023-02-28T00:12:20;3.40;;;3.10;;
13331;SDS011;6735;51.456;12.626;2023-02-28T00:14:46;4.63;;;3.67;;
13331;SDS011;6735;51.456;12.626;2023-02-28T00:17:11;4.83;;;4.13;;
13331;SDS011;6735;51.456;12.626;2023-02-28T00:19:37;3.77;;;3.30;;
13331;SDS011;6735;51.456;12.626;2023-02-28T00:22:02;4.93;;;3.40;;
13331;SDS011;6735;51.456;12.626;2023-02-28T00:24:27;3.93;;;3.60;;
13331;SDS011;6735;51.456;12.626;2023-02-28T00:26:53;6.17;;;3.60;;
13331;SDS011;6735;51.456;12.626;2023-02-28T00:29:18;3.93;;;3.57;;
13331;SDS011;6735;51.456;12.626;2023-02-28T00:31:44;3.83;;;3.40;;
13331;SDS011;6735;51.456;12.626;2023-02-28T00:34:09;5.83;;;3.57;;
13331;SDS011;6735;51.456;12.626;2023-02-28T00:36:35;4.10;;;3.63;;
13331;SDS011;6735;51.456;12.626;2023-02-28T00:39:00;3.67;;;3.37;;
13331;SDS011;6735;51.456;12.626;2023-02-28T00:41:26;3.60;;;3.30;;
13331;SDS011;6735;51.456;12.626;2023-02-28T00:43:51;4.10;;;3.47;;
13331;SDS011;6735;51.456;12.626;2023-02-28T00:46:17;4.07;;;3.47;;
13331;SDS011;6735;51.456;12.626;2023-02-28T00:48:43;3.90;;;3.53;;
13331;SDS011;6735;51.456;12.626;2023-02-28T00:51:08;4.60;;;3.67;;
13331;SDS011;6735;51.456;12.626;2023-02-28T00:53:34;4.70;;;3.47;;
13331;SDS011;6735;51.456;12.626;2023-02-28T00:56:00;4.27;;;3.87;;
13331;SDS011;6735;51.456;12.626;2023-02-28T00:58:25;4.87;;;3.87;;
13331;SDS011;6735;51.456;12.626;2023-02-28T01:00:51;4.67;;;4.17;;
13331;SDS011;6735;51.456;12.626;2023-02-28T01:03:18;4.73;;;4.33;;
13331;SDS011;6735;51.456;12.626;2023-02-28T01:05:45;5.73;;;4.03;;
13331;SDS011;6735;51.456;12.626;2023-02-28T01:08:11;6.13;;;4.23;;
13331;SDS011;6735;51.456;12.626;2023-02-28T01:10:38;6.57;;;4.33;;
13331;SDS011;6735;51.456;12.626;2023-02-28T01:13:04;4.70;;;4.17;;
13331;SDS011;6735;51.456;12.626;2023-02-28T01:15:29;5.73;;;3.80;;
13331;SDS011;6735;51.456;12.626;2023-02-28T01:17:56;6.13;;;3.60;;
13331;SDS011;6735;51.456;12.626;2023-02-28T01:20:22;4.77;;;4.13;;
13331;SDS011;6735;51.456;12.626;2023-02-28T01:22:47;4.90;;;3.93;;
13331;SDS011;6735;51.456;12.626;2023-02-28T01:25:13;4.33;;;3.93;;
13331;SDS011;6735;51.456;12.626;2023-02-28T01:27:39;5.03;;;4.23;;
13331;SDS011;6735;51.456;12.626;2023-02-28T01:30:05;6.03;;;4.00;;
13331;SDS011;6735;51.456;12.626;2023-02-28T01:32:32;5.90;;;4.30;;
13331;SDS011;6735;51.456;12.626;2023-02-28T01:34:57;4.83;;;4.33;;
13331;SDS011;6735;51.456;12.626;2023-02-28T01:37:22;4.30;;;3.77;;
13331;SDS011;6735;51.456;12.626;2023-02-28T01:39:48;5.50;;;4.07;;
13331;SDS011;6735;51.456;12.626;2023-02-28T01:42:13;6.67;;;4.17;;
13331;SDS011;6735;51.456;12.626;2023-02-28T01:44:57;5.67;;;4.43;;
13331;SDS011;6735;51.456;12.626;2023-02-28T01:47:41;4.53;;;4.13;;
13331;SDS011;6735;51.456;12.626;2023-02-28T01:50:09;6.00;;;4.50;;
13331;SDS011;6735;51.456;12.626;2023-02-28T01:52:39;5.53;;;4.87;;
13331;SDS011;6735;51.456;12.626;2023-02-28T01:55:07;5.20;;;4.30;;
13331;SDS011;6735;51.456;12.626;2023-02-28T01:57:43;6.13;;;4.60;;
13331;SDS011;6735;51.456;12.626;2023-02-28T02:00:16;6.63;;;4.33;;
13331;SDS011;6735;51.456;12.626;2023-02-28T02:02:45;5.10;;;4.60;;
13331;SDS011;6735;51.456;12.626;2023-02-28T02:05:15;6.47;;;4.83;;
13331;SDS011;6735;51.456;12.626;2023-02-28T02:07:44;5.97;;;4.63;;
13331;SDS011;6735;51.456;12.626;2023-02-28T02:12:47;6.53;;;4.63;;
13331;SDS011;6735;51.456;12.626;2023-02-28T02:15:30;5.87;;;4.77;;
13331;SDS011;6735;51.456;12.626;2023-02-28T02:18:03;5.80;;;4.57;;
13331;SDS011;6735;51.456;12.626;2023-02-28T02:23:46;5.70;;;4.60;;
13331;SDS011;6735;51.456;12.626;2023-02-28T02:39:06;12.23;;;5.23;;
13331;SDS011;6735;51.456;12.626;2023-02-28T02:46:45;6.50;;;4.80;;
13331;SDS011;6735;51.456;12.626;2023-02-28T02:49:15;6.87;;;5.00;;
13331;SDS011;6735;51.456;12.626;2023-02-28T02:51:47;5.60;;;5.00;;
13331;SDS011;6735;51.456;12.626;2023-02-28T02:54:16;7.10;;;5.17;;
13331;SDS011;6735;51.456;12.626;2023-02-28T02:56:45;5.40;;;4.90;;
13331;SDS011;6735;51.456;12.626;2023-02-28T02:59:13;6.47;;;5.00;;
13331;SDS011;6735;51.456;12.626;2023-02-28T03:01:45;6.67;;;5.33;;
13331;SDS011;6735;51.456;12.626;2023-02-28T03:04:20;6.40;;;5.50;;
13331;SDS011;6735;51.456;12.626;2023-02-28T03:06:47;5.70;;;5.03;;
13331;SDS011;6735;51.456;12.626;2023-02-28T03:09:13;7.57;;;5.13;;
13331;SDS011;6735;51.456;12.626;2023-02-28T03:11:38;5.33;;;4.83;;
13331;SDS011;6735;51.456;12.626;2023-02-28T03:14:24;5.73;;;5.17;;
13331;SDS011;6735;51.456;12.626;2023-02-28T03:20:00;5.33;;;4.80;;
13331;SDS011;6735;51.456;12.626;2023-02-28T03:22:36;7.83;;;5.60;;
13331;SDS011;6735;51.456;12.626;2023-02-28T03:27:49;6.63;;;5.20;;
13331;SDS011;6735;51.456;12.626;2023-02-28T03:30:27;6.33;;;4.97;;
13331;SDS011;6735;51.456;12.626;2023-02-28T03:35:50;6.60;;;4.93;;
13331;SDS011;6735;51.456;12.626;2023-02-28T03:38:28;6.27;;;5.40;;
13331;SDS011;6735;51.456;12.626;2023-02-28T03:41:09;5.97;;;5.37;;
13331;SDS011;6735;51.456;12.626;2023-02-28T03:43:42;6.67;;;5.50;;
13331;SDS011;6735;51.456;12.626;2023-02-28T03:46:14;7.57;;;5.53;;
13331;SDS011;6735;51.456;12.626;2023-02-28T03:48:45;6.67;;;5.87;;
13331;SDS011;6735;51.456;12.626;2023-02-28T03:51:18;6.30;;;5.70;;
13331;SDS011;6735;51.456;12.626;2023-02-28T03:53:50;7.80;;;6.40;;
13331;SDS011;6735;51.456;12.626;2023-02-28T03:56:29;8.57;;;6.60;;
13331;SDS011;6735;51.456;12.626;2023-02-28T03:59:16;7.07;;;6.33;;
13331;SDS011;6735;51.456;12.626;2023-02-28T04:02:01;7.53;;;6.10;;
13331;SDS011;6735;51.456;12.626;2023-02-28T04:04:27;10.27;;;6.30;;
13331;SDS011;6735;51.456;12.626;2023-02-28T04:06:53;7.93;;;6.40;;
13331;SDS011;6735;51.456;12.626;2023-02-28T04:09:35;7.63;;;6.10;;
13331;SDS011;6735;51.456;12.626;2023-02-28T04:12:01;7.10;;;6.10;;
13331;SDS011;6735;51.456;12.626;2023-02-28T04:14:26;6.77;;;6.00;;
13331;SDS011;6735;51.456;12.626;2023-02-28T04:16:52;7.27;;;6.30;;
13331;SDS011;6735;51.456;12.626;2023-02-28T04:19:18;8.67;;;6.90;;
13331;SDS011;6735;51.456;12.626;2023-02-28T04:21:45;6.33;;;5.73;;
13331;SDS011;6735;51.456;12.626;2023-02-28T04:24:13;7.93;;;6.57;;
13331;SDS011;6735;51.456;12.626;2023-02-28T04:26:41;7.90;;;6.13;;
13331;SDS011;6735;51.456;12.626;2023-02-28T04:29:09;6.77;;;6.00;;
13331;SDS011;6735;51.456;12.626;2023-02-28T04:31:35;6.43;;;5.73;;
13331;SDS011;6735;51.456;12.626;2023-02-28T04:34:01;15.70;;;10.57;;
13331;SDS011;6735;51.456;12.626;2023-02-28T04:36:27;12.83;;;9.07;;
13331;SDS011;6735;51.456;12.626;2023-02-28T04:38:53;8.70;;;7.63;;
13331;SDS011;6735;51.456;12.626;2023-02-28T04:41:18;9.20;;;6.90;;
13331;SDS011;6735;51.456;12.626;2023-02-28T04:43:44;7.87;;;6.47;;
13331;SDS011;6735;51.456;12.626;2023-02-28T04:46:10;7.77;;;7.07;;
13331;SDS011;6735;51.456;12.626;2023-02-28T04:48:36;7.57;;;6.07;;
13331;SDS011;6735;51.456;12.626;2023-02-28T04:51:04;15.97;;;10.30;;
13331;SDS011;6735;51.456;12.626;2023-02-28T04:53:37;10.10;;;7.00;;
13331;SDS011;6735;51.456;12.626;2023-02-28T04:56:04;8.27;;;6.43;;
13331;SDS011;6735;51.456;12.626;2023-02-28T04:58:31;6.67;;;5.90;;
13331;SDS011;6735;51.456;12.626;2023-02-28T05:01:01;7.77;;;6.30;;
13331;SDS011;6735;51.456;12.626;2023-02-28T05:03:37;7.67;;;6.30;;
13331;SDS011;6735;51.456;12.626;2023-02-28T05:06:05;6.70;;;6.00;;
13331;SDS011;6735;51.456;12.626;2023-02-28T05:08:31;6.97;;;6.27;;
13331;SDS011;6735;51.456;12.626;2023-02-28T05:10:57;8.17;;;6.50;;
13331;SDS011;6735;51.456;12.626;2023-02-28T05:13:22;9.10;;;6.33;;
13331;SDS011;6735;51.456;12.626;2023-02-28T05:15:47;10.00;;;6.33;;
13331;SDS011;6735;51.456;12.626;2023-02-28T05:18:13;7.70;;;6.53;;
13331;SDS011;6735;51.456;12.626;2023-02-28T05:20:39;8.43;;;6.40;;
13331;SDS011;6735;51.456;12.626;2023-02-28T05:23:05;8.03;;;6.57;;
13331;SDS011;6735;51.456;12.626;2023-02-28T05:25:30;7.73;;;6.33;;
13331;SDS011;6735;51.456;12.626;2023-02-28T05:27:56;9.00;;;6.40;;
13331;SDS011;6735;51.456;12.626;2023-02-28T05:30:21;7.93;;;6.90;;
13331;SDS011;6735;51.456;12.626;2023-02-28T05:32:49;8.50;;;6.83;;
13331;SDS011;6735;51.456;12.626;2023-02-28T05:35:16;8.47;;;6.33;;
13331;SDS011;6735;51.456;12.626;2023-02-28T05:37:42;8.67;;;6.80;;
13331;SDS011;6735;51.456;12.626;2023-02-28T05:40:07;7.30;;;6.47;;
13331;SDS011;6735;51.456;12.626;2023-02-28T05:42:35;13.93;;;10.47;;
13331;SDS011;6735;51.456;12.626;2023-02-28T05:45:01;10.30;;;8.67;;
13331;SDS011;6735;51.456;12.626;2023-02-28T05:47:27;9.03;;;7.20;;
13331;SDS011;6735;51.456;12.626;2023-02-28T05:49:52;9.87;;;6.83;;
13331;SDS011;6735;51.456;12.626;2023-02-28T05:52:18;10.87;;;7.77;;
13331;SDS011;6735;51.456;12.626;2023-02-28T05:54:43;8.80;;;7.30;;
13331;SDS011;6735;51.456;12.626;2023-02-28T05:57:10;8.37;;;7.40;;
13331;SDS011;6735;51.456;12.626;2023-02-28T05:59:36;8.73;;;7.10;;
13331;SDS011;6735;51.456;12.626;2023-02-28T06:02:04;9.60;;;7.60;;
13331;SDS011;6735;51.456;12.626;2023-02-28T06:04:31;12.20;;;9.23;;
13331;SDS011;6735;51.456;12.626;2023-02-28T06:06:57;11.73;;;9.33;;
13331;SDS011;6735;51.456;12.626;2023-02-28T06:09:22;19.70;;;10.70;;
13331;SDS011;6735;51.456;12.626;2023-02-28T06:11:48;12.10;;;9.57;;
13331;SDS011;6735;51.456;12.626;2023-02-28T06:14:14;12.23;;;8.70;;
13331;SDS011;6735;51.456;12.626;2023-02-28T06:16:41;10.90;;;7.70;;
13331;SDS011;6735;51.456;12.626;2023-02-28T06:19:08;8.47;;;7.53;;
13331;SDS011;6735;51.456;12.626;2023-02-28T06:21:34;8.93;;;7.67;;
13331;SDS011;6735;51.456;12.626;2023-02-28T06:23:59;10.10;;;7.80;;
13331;SDS011;6735;51.456;12.626;2023-02-28T06:26:25;9.57;;;7.93;;
13331;SDS011;6735;51.456;12.626;2023-02-28T06:28:51;12.47;;;9.00;;
13331;SDS011;6735;51.456;12.626;2023-02-28T06:31:17;12.80;;;9.03;;
13331;SDS011;6735;51.456;12.626;2023-02-28T06:33:44;12.00;;;9.10;;
13331;SDS011;6735;51.456;12.626;2023-02-28T06:36:11;12.87;;;9.30;;
13331;SDS011;6735;51.456;12.626;2023-02-28T06:38:37;13.67;;;9.87;;
13331;SDS011;6735;51.456;12.626;2023-02-28T06:41:04;14.17;;;10.90;;
13331;SDS011;6735;51.456;12.626;2023-02-28T06:43:31;15.83;;;11.20;;
13331;SDS011;6735;51.456;12.626;2023-02-28T06:46:00;13.70;;;10.10;;
13331;SDS011;6735;51.456;12.626;2023-02-28T06:48:27;14.97;;;11.20;;
13331;SDS011;6735;51.456;12.626;2023-02-28T06:51:03;17.47;;;11.40;;
13331;SDS011;6735;51.456;12.626;2023-02-28T06:56:17;15.13;;;10.77;;
13331;SDS011;6735;51.456;12.626;2023-02-28T06:58:49;15.43;;;10.67;;
13331;SDS011;6735;51.456;12.626;2023-02-28T07:01:16;19.67;;;11.23;;
13331;SDS011;6735;51.456;12.626;2023-02-28T07:03:43;15.43;;;10.67;;
13331;SDS011;6735;51.456;12.626;2023-02-28T07:06:09;16.30;;;11.40;;
13331;SDS011;6735;51.456;12.626;2023-02-28T07:08:35;16.80;;;12.27;;
13331;SDS011;6735;51.456;12.626;2023-02-28T07:11:05;50.30;;;26.90;;
13331;SDS011;6735;51.456;12.626;2023-02-28T07:13:30;34.27;;;19.57;;
13331;SDS011;6735;51.456;12.626;2023-02-28T07:15:57;23.77;;;15.13;;
13331;SDS011;6735;51.456;12.626;2023-02-28T07:18:25;23.70;;;13.33;;
13331;SDS011;6735;51.456;12.626;2023-02-28T07:20:51;18.03;;;11.73;;
13331;SDS011;6735;51.456;12.626;2023-02-28T07:23:17;25.73;;;15.40;;
13331;SDS011;6735;51.456;12.626;2023-02-28T07:25:43;21.00;;;15.60;;
13331;SDS011;6735;51.456;12.626;2023-02-28T07:28:08;21.87;;;13.57;;
13331;SDS011;6735;51.456;12.626;2023-02-28T07:30:34;11.50;;;9.63;;
13331;SDS011;6735;51.456;12.626;2023-02-28T07:32:59;12.43;;;9.60;;
13331;SDS011;6735;51.456;12.626;2023-02-28T07:35:25;9.17;;;7.47;;
13331;SDS011;6735;51.456;12.626;2023-02-28T07:37:50;13.60;;;9.37;;
13331;SDS011;6735;51.456;12.626;2023-02-28T07:40:16;13.03;;;8.83;;
13331;SDS011;6735;51.456;12.626;2023-02-28T07:42:42;10.93;;;7.53;;
13331;SDS011;6735;51.456;12.626;2023-02-28T07:45:09;10.10;;;7.37;;
13331;SDS011;6735;51.456;12.626;2023-02-28T07:47:36;11.83;;;8.83;;
13331;SDS011;6735;51.456;12.626;2023-02-28T07:50:03;11.23;;;8.63;;
13331;SDS011;6735;51.456;12.626;2023-02-28T07:52:28;9.30;;;7.33;;
13331;SDS011;6735;51.456;12.626;2023-02-28T07:54:54;11.30;;;7.53;;
13331;SDS011;6735;51.456;12.626;2023-02-28T07:57:19;10.03;;;7.23;;
13331;SDS011;6735;51.456;12.626;2023-02-28T07:59:45;9.27;;;6.80;;
13331;SDS011;6735;51.456;12.626;2023-02-28T08:02:12;10.57;;;7.17;;
13331;SDS011;6735;51.456;12.626;2023-02-28T08:04:39;11.03;;;6.93;;
13331;SDS011;6735;51.456;12.626;2023-02-28T08:07:04;10.43;;;6.83;;
13331;SDS011;6735;51.456;12.626;2023-02-28T08:09:30;10.57;;;7.40;;
13331;SDS011;6735;51.456;12.626;2023-02-28T08:11:55;11.17;;;9.87;;
13331;SDS011;6735;51.456;12.626;2023-02-28T08:14:21;10.57;;;8.23;;
13331;SDS011;6735;51.456;12.626;2023-02-28T08:16:47;17.30;;;10.23;;
13331;SDS011;6735;51.456;12.626;2023-02-28T08:19:12;10.50;;;6.50;;
13331;SDS011;6735;51.456;12.626;2023-02-28T08:21:38;8.97;;;5.70;;
13331;SDS011;6735;51.456;12.626;2023-02-28T08:24:04;14.57;;;8.53;;
13331;SDS011;6735;51.456;12.626;2023-02-28T08:26:30;7.10;;;5.57;;
13331;SDS011;6735;51.456;12.626;2023-02-28T08:28:56;6.23;;;5.63;;
13331;SDS011;6735;51.456;12.626;2023-02-28T08:31:21;7.40;;;5.80;;
13331;SDS011;6735;51.456;12.626;2023-02-28T08:33:47;7.60;;;6.60;;
13331;SDS011;6735;51.456;12.626;2023-02-28T08:36:15;7.13;;;5.93;;
13331;SDS011;6735;51.456;12.626;2023-02-28T08:38:41;33.13;;;8.13;;
13331;SDS011;6735;51.456;12.626;2023-02-28T08:41:08;10.90;;;6.87;;
13331;SDS011;6735;51.456;12.626;2023-02-28T08:43:35;10.60;;;5.67;;
13331;SDS011;6735;51.456;12.626;2023-02-28T08:46:01;7.47;;;5.20;;
13331;SDS011;6735;51.456;12.626;2023-02-28T08:48:29;6.70;;;5.00;;
13331;SDS011;6735;51.456;12.626;2023-02-28T08:50:56;6.13;;;5.40;;
13331;SDS011;6735;51.456;12.626;2023-02-28T08:53:23;7.73;;;5.73;;
13331;SDS011;6735;51.456;12.626;2023-02-28T08:55:55;6.47;;;5.67;;
13331;SDS011;6735;51.456;12.626;2023-02-28T08:58:28;10.00;;;8.57;;
13331;SDS011;6735;51.456;12.626;2023-02-28T09:00:54;10.33;;;6.50;;
13331;SDS011;6735;51.456;12.626;2023-02-28T09:03:20;8.37;;;6.27;;
13331;SDS011;6735;51.456;12.626;2023-02-28T09:05:56;7.60;;;6.90;;
13331;SDS011;6735;51.456;12.626;2023-02-28T09:08:23;7.95;;;6.40;;
13331;SDS011;6735;51.456;12.626;2023-02-28T09:10:49;10.67;;;7.00;;
13331;SDS011;6735;51.456;12.626;2023-02-28T09:13:16;8.00;;;7.17;;
13331;SDS011;6735;51.456;12.626;2023-02-28T09:15:41;7.83;;;6.10;;
13331;SDS011;6735;51.456;12.626;2023-02-28T09:18:07;7.03;;;5.90;;
13331;SDS011;6735;51.456;12.626;2023-02-28T09:20:33;5.30;;;4.80;;
13331;SDS011;6735;51.456;12.626;2023-02-28T09:22:58;7.20;;;5.23;;
13331;SDS011;6735;51.456;12.626;2023-02-28T09:25:24;13.87;;;6.00;;
13331;SDS011;6735;51.456;12.626;2023-02-28T09:27:49;16.67;;;6.70;;
13331;SDS011;6735;51.456;12.626;2023-02-28T09:30:15;6.07;;;5.13;;
13331;SDS011;6735;51.456;12.626;2023-02-28T09:32:41;6.20;;;5.10;;
13331;SDS011;6735;51.456;12.626;2023-02-28T09:35:06;15.07;;;6.00;;
13331;SDS011;6735;51.456;12.626;2023-02-28T09:37:38;6.53;;;4.90;;
13331;SDS011;6735;51.456;12.626;2023-02-28T09:40:03;5.30;;;4.50;;
13331;SDS011;6735;51.456;12.626;2023-02-28T09:42:31;7.60;;;4.80;;
13331;SDS011;6735;51.456;12.626;2023-02-28T09:44:58;5.10;;;4.47;;
13331;SDS011;6735;51.456;12.626;2023-02-28T09:47:31;7.07;;;5.70;;
13331;SDS011;6735;51.456;12.626;2023-02-28T09:50:52;7.63;;;4.83;;
13331;SDS011;6735;51.456;12.626;2023-02-28T09:52:51;12.13;;;10.37;;
13331;SDS011;6735;51.456;12.626;2023-02-28T09:55:20;9.80;;;7.37;;
13331;SDS011;6735;51.456;12.626;2023-02-28T09:57:50;5.20;;;4.70;;
13331;SDS011;6735;51.456;12.626;2023-02-28T10:00:18;7.27;;;4.97;;
13331;SDS011;6735;51.456;12.626;2023-02-28T10:05:56;5.80;;;5.20;;
13331;SDS011;6735;51.456;12.626;2023-02-28T10:08:33;6.57;;;4.83;;
13331;SDS011;6735;51.456;12.626;2023-02-28T10:11:06;7.60;;;5.10;;
13331;SDS011;6735;51.456;12.626;2023-02-28T10:16:24;10.17;;;7.33;;
13331;SDS011;6735;51.456;12.626;2023-02-28T10:18:56;6.77;;;4.43;;
13331;SDS011;6735;51.456;12.626;2023-02-28T10:21:31;5.40;;;4.90;;
13331;SDS011;6735;51.456;12.626;2023-02-28T10:24:11;15.90;;;5.67;;
13331;SDS011;6735;51.456;12.626;2023-02-28T10:26:45;6.87;;;5.27;;
13331;SDS011;6735;51.456;12.626;2023-02-28T10:29:12;6.30;;;5.43;;
13331;SDS011;6735;51.456;12.626;2023-02-28T10:31:37;9.87;;;8.80;;
13331;SDS011;6735;51.456;12.626;2023-02-28T10:34:03;6.37;;;5.63;;
13331;SDS011;6735;51.456;12.626;2023-02-28T10:36:31;6.07;;;5.40;;
13331;SDS011;6735;51.456;12.626;2023-02-28T10:38:56;5.67;;;5.07;;
13331;SDS011;6735;51.456;12.626;2023-02-28T10:41:26;6.83;;;4.80;;
13331;SDS011;6735;51.456;12.626;2023-02-28T10:44:12;7.67;;;6.40;;
13331;SDS011;6735;51.456;12.626;2023-02-28T10:46:40;5.43;;;4.93;;
13331;SDS011;6735;51.456;12.626;2023-02-28T10:49:11;7.70;;;6.10;;
13331;SDS011;6735;51.456;12.626;2023-02-28T10:51:40;9.00;;;8.10;;
13331;SDS011;6735;51.456;12.626;2023-02-28T10:54:14;20.73;;;14.90;;
13331;SDS011;6735;51.456;12.626;2023-02-28T10:56:42;8.43;;;7.57;;
13331;SDS011;6735;51.456;12.626;2023-02-28T11:01:46;6.97;;;5.57;;
13331;SDS011;6735;51.456;12.626;2023-02-28T11:04:32;6.30;;;5.50;;
13331;SDS011;6735;51.456;12.626;2023-02-28T11:07:18;18.87;;;12.53;;
13331;SDS011;6735;51.456;12.626;2023-02-28T11:09:46;6.67;;;6.00;;
13331;SDS011;6735;51.456;12.626;2023-02-28T11:12:22;9.90;;;7.27;;
13331;SDS011;6735;51.456;12.626;2023-02-28T11:14:51;8.47;;;6.50;;
13331;SDS011;6735;51.456;12.626;2023-02-28T11:17:20;7.23;;;5.70;;
13331;SDS011;6735;51.456;12.626;2023-02-28T11:19:48;9.00;;;6.33;;
13331;SDS011;6735;51.456;12.626;2023-02-28T11:22:20;10.87;;;8.63;;
13331;SDS011;6735;51.456;12.626;2023-02-28T11:24:50;12.60;;;9.13;;
13331;SDS011;6735;51.456;12.626;2023-02-28T11:27:40;8.20;;;6.30;;
13331;SDS011;6735;51.456;12.626;2023-02-28T11:30:25;7.70;;;6.90;;
13331;SDS011;6735;51.456;12.626;2023-02-28T11:33:22;8.53;;;7.53;;
13331;SDS011;6735;51.456;12.626;2023-02-28T11:36:09;8.70;;;7.23;;
13331;SDS011;6735;51.456;12.626;2023-02-28T11:38:41;8.00;;;7.30;;
13331;SDS011;6735;51.456;12.626;2023-02-28T11:52:27;8.67;;;6.57;;
13331;SDS011;6735;51.456;12.626;2023-02-28T11:55:06;7.63;;;6.80;;
13331;SDS011;6735;51.456;12.626;2023-02-28T12:00:31;9.53;;;7.13;;
13331;SDS011;6735;51.456;12.626;2023-02-28T12:03:31;8.50;;;7.17;;
13331;SDS011;6735;51.456;12.626;2023-02-28T12:19:21;9.40;;;6.97;;
13331;SDS011;6735;51.456;12.626;2023-02-28T12:22:00;10.50;;;7.97;;
13331;SDS011;6735;51.456;12.626;2023-02-28T12:24:47;7.87;;;6.90;;
13331;SDS011;6735;51.456;12.626;2023-02-28T12:27:18;8.20;;;7.40;;
13331;SDS011;6735;51.456;12.626;2023-02-28T12:29:51;9.63;;;7.03;;
13331;SDS011;6735;51.456;12.626;2023-02-28T12:32:26;8.03;;;7.23;;
13331;SDS011;6735;51.456;12.626;2023-02-28T12:37:36;9.23;;;6.80;;
13331;SDS011;6735;51.456;12.626;2023-02-28T12:40:09;8.70;;;7.13;;
13331;SDS011;6735;51.456;12.626;2023-02-28T12:42:44;9.40;;;7.60;;
13331;SDS011;6735;51.456;12.626;2023-02-28T12:45:20;10.70;;;7.87;;
13331;SDS011;6735;51.456;12.626;2023-02-28T12:47:56;10.93;;;9.33;;
13331;SDS011;6735;51.456;12.626;2023-02-28T12:50:25;10.20;;;9.20;;
13331;SDS011;6735;51.456;12.626;2023-02-28T12:53:15;9.80;;;8.10;;
13331;SDS011;6735;51.456;12.626;2023-02-28T12:56:27;7.67;;;6.70;;
13331;SDS011;6735;51.456;12.626;2023-02-28T12:58:49;12.97;;;8.10;;
13331;SDS011;6735;51.456;12.626;2023-02-28T13:01:39;7.03;;;6.30;;
13331;SDS011;6735;51.456;12.626;2023-02-28T13:04:33;7.23;;;6.53;;
13331;SDS011;6735;51.456;12.626;2023-02-28T13:07:41;9.57;;;7.10;;
13331;SDS011;6735;51.456;12.626;2023-02-28T13:10:20;10.27;;;7.70;;
13331;SDS011;6735;51.456;12.626;2023-02-28T13:12:47;9.67;;;7.40;;
13331;SDS011;6735;51.456;12.626;2023-02-28T13:15:18;7.97;;;7.23;;
13331;SDS011;6735;51.456;12.626;2023-02-28T13:17:52;7.63;;;6.93;;
13331;SDS011;6735;51.456;12.626;2023-02-28T13:20:20;7.93;;;6.97;;
13331;SDS011;6735;51.456;12.626;2023-02-28T13:22:49;7.87;;;7.07;;
13331;SDS011;6735;51.456;12.626;2023-02-28T13:27:58;8.90;;;8.00;;
13331;SDS011;6735;51.456;12.626;2023-02-28T13:33:34;9.07;;;7.03;;
13331;SDS011;6735;51.456;12.626;2023-02-28T13:36:08;8.27;;;7.43;;
13331;SDS011;6735;51.456;12.626;2023-02-28T13:38:36;9.87;;;7.40;;
13331;SDS011;6735;51.456;12.626;2023-02-28T13:46:30;12.37;;;9.83;;
13331;SDS011;6735;51.456;12.626;2023-02-28T13:48:56;13.93;;;9.20;;
13331;SDS011;6735;51.456;12.626;2023-02-28T14:06:18;8.40;;;7.43;;
13331;SDS011;6735;51.456;12.626;2023-02-28T14:08:59;8.70;;;7.40;;
13331;SDS011;6735;51.456;12.626;2023-02-28T14:11:30;10.63;;;7.40;;
13331;SDS011;6735;51.456;12.626;2023-02-28T14:14:01;9.70;;;8.37;;
13331;SDS011;6735;51.456;12.626;2023-02-28T14:16:44;9.33;;;8.20;;
13331;SDS011;6735;51.456;12.626;2023-02-28T14:19:19;9.27;;;8.37;;
13331;SDS011;6735;51.456;12.626;2023-02-28T14:22:04;11.50;;;9.53;;
13331;SDS011;6735;51.456;12.626;2023-02-28T14:24:52;11.30;;;8.80;;
13331;SDS011;6735;51.456;12.626;2023-02-28T14:36:47;11.17;;;8.00;;
13331;SDS011;6735;51.456;12.626;2023-02-28T14:39:15;10.10;;;8.83;;
13331;SDS011;6735;51.456;12.626;2023-02-28T14:41:44;11.53;;;8.10;;
13331;SDS011;6735;51.456;12.626;2023-02-28T14:44:21;11.83;;;8.93;;
13331;SDS011;6735;51.456;12.626;2023-02-28T14:47:01;8.67;;;7.30;;
13331;SDS011;6735;51.456;12.626;2023-02-28T14:49:32;9.20;;;7.90;;
13331;SDS011;6735;51.456;12.626;2023-02-28T14:52:01;11.27;;;8.97;;
13331;SDS011;6735;51.456;12.626;2023-02-28T14:54:27;11.07;;;8.57;;
13331;SDS011;6735;51.456;12.626;2023-02-28T14:56:54;9.33;;;8.37;;
13331;SDS011;6735;51.456;12.626;2023-02-28T14:59:37;8.80;;;7.80;;
13331;SDS011;6735;51.456;12.626;2023-02-28T15:02:14;8.93;;;8.03;;
13331;SDS011;6735;51.456;12.626;2023-02-28T15:04:54;9.37;;;8.10;;
13331;SDS011;6735;51.456;12.626;2023-02-28T15:07:21;9.13;;;7.47;;
13331;SDS011;6735;51.456;12.626;2023-02-28T15:12:58;11.80;;;8.30;;
13331;SDS011;6735;51.456;12.626;2023-02-28T15:15:32;11.07;;;8.57;;
13331;SDS011;6735;51.456;12.626;2023-02-28T15:18:07;10.57;;;7.83;;
13331;SDS011;6735;51.456;12.626;2023-02-28T15:20:38;11.20;;;8.10;;
13331;SDS011;6735;51.456;12.626;2023-02-28T15:23:06;10.03;;;8.67;;
13331;SDS011;6735;51.456;12.626;2023-02-28T15:25:31;9.83;;;8.60;;
13331;SDS011;6735;51.456;12.626;2023-02-28T15:27:57;9.57;;;8.63;;
13331;SDS011;6735;51.456;12.626;2023-02-28T15:30:24;11.10;;;9.00;;
13331;SDS011;6735;51.456;12.626;2023-02-28T15:36:02;11.13;;;8.93;;
13331;SDS011;6735;51.456;12.626;2023-02-28T15:38:30;13.67;;;9.23;;
13331;SDS011;6735;51.456;12.626;2023-02-28T15:40:59;9.37;;;8.37;;
13331;SDS011;6735;51.456;12.626;2023-02-28T15:43:32;9.53;;;8.37;;
13331;SDS011;6735;51.456;12.626;2023-02-28T15:45:59;9.03;;;8.13;;
13331;SDS011;6735;51.456;12.626;2023-02-28T15:48:29;9.97;;;8.73;;
13331;SDS011;6735;51.456;12.626;2023-02-28T15:51:01;11.17;;;8.87;;
13331;SDS011;6735;51.456;12.626;2023-02-28T15:53:47;9.57;;;8.57;;
13331;SDS011;6735;51.456;12.626;2023-02-28T15:56:26;9.47;;;8.57;;
13331;SDS011;6735;51.456;12.626;2023-02-28T15:58:57;11.07;;;8.80;;
13331;SDS011;6735;51.456;12.626;2023-02-28T16:01:35;11.37;;;8.53;;
13331;SDS011;6735;51.456;12.626;2023-02-28T16:04:03;11.60;;;8.47;;
13331;SDS011;6735;51.456;12.626;2023-02-28T16:06:40;10.37;;;8.80;;
13331;SDS011;6735;51.456;12.626;2023-02-28T16:09:10;10.10;;;9.10;;
13331;SDS011;6735;51.456;12.626;2023-02-28T16:11:41;9.33;;;8.43;;
13331;SDS011;6735;51.456;12.626;2023-02-28T16:14:15;10.13;;;9.10;;
13331;SDS011;6735;51.456;12.626;2023-02-28T16:16:45;9.73;;;8.33;;
13331;SDS011;6735;51.456;12.626;2023-02-28T16:19:13;24.63;;;17.30;;
13331;SDS011;6735;51.456;12.626;2023-02-28T16:21:38;71.40;;;49.83;;
13331;SDS011;6735;51.456;12.626;2023-02-28T16:24:04;40.60;;;31.33;;
13331;SDS011;6735;51.456;12.626;2023-02-28T16:26:30;25.27;;;22.37;;
13331;SDS011;6735;51.456;12.626;2023-02-28T16:28:58;14.57;;;13.03;;
13331;SDS011;6735;51.456;12.626;2023-02-28T16:31:25;14.73;;;12.97;;
13331;SDS011;6735;51.456;12.626;2023-02-28T16:33:50;13.80;;;11.13;;
13331;SDS011;6735;51.456;12.626;2023-02-28T16:36:17;32.57;;;26.53;;
13331;SDS011;6735;51.456;12.626;2023-02-28T16:38:44;23.77;;;18.23;;
13331;SDS011;6735;51.456;12.626;2023-02-28T16:41:12;18.53;;;15.73;;
13331;SDS011;6735;51.456;12.626;2023-02-28T16:43:43;21.10;;;17.67;;
13331;SDS011;6735;51.456;12.626;2023-02-28T16:46:13;20.87;;;18.77;;
13331;SDS011;6735;51.456;12.626;2023-02-28T16:48:39;15.73;;;14.10;;
13331;SDS011;6735;51.456;12.626;2023-02-28T16:51:11;16.37;;;14.67;;